createdAt,value
2022-12-09T00:00:10.397Z,3.11
2022-12-09T00:05:12.376Z,3.01
2022-12-09T00:10:13.952Z,2.86
2022-12-09T00:15:15.529Z,2.87
2022-12-09T00:20:17.202Z,2.97
2022-12-09T00:25:18.851Z,3.06
2022-12-09T00:30:20.488Z,2.96
2022-12-09T00:35:23.011Z,3.03
2022-12-09T00:40:24.585Z,3.05
2022-12-09T00:45:26.104Z,3.10
2022-12-09T00:50:27.803Z,3.03
2022-12-09T00:55:29.654Z,3.06
2022-12-09T01:00:31.708Z,3.06
2022-12-09T01:05:36.427Z,3.12
2022-12-09T01:10:39.814Z,3.09
2022-12-09T01:15:42.215Z,3.16
2022-12-09T01:20:43.832Z,3.22
2022-12-09T01:25:45.970Z,3.21
2022-12-09T01:30:47.770Z,3.12
2022-12-09T01:35:49.560Z,3.17
2022-12-09T01:40:51.405Z,3.09
2022-12-09T01:45:53.152Z,3.02
2022-12-09T01:50:59.451Z,3.00
2022-12-09T01:56:05.832Z,3.04
2022-12-09T02:01:07.777Z,3.05
2022-12-09T02:06:09.825Z,3.14
2022-12-09T02:11:37.562Z,3.06
2022-12-09T02:17:03.562Z,3.08
2022-12-09T02:22:08.120Z,3.19
2022-12-09T02:27:32.487Z,3.12
2022-12-09T02:32:40.520Z,3.17
2022-12-09T02:38:06.851Z,3.32
2022-12-09T02:43:10.995Z,3.35
2022-12-09T02:48:18.499Z,3.41
2022-12-09T02:53:23.502Z,3.42
2022-12-09T02:58:25.301Z,3.43
2022-12-09T03:03:31.212Z,3.32
2022-12-09T03:08:48.312Z,3.25
2022-12-09T03:13:52.643Z,3.24
2022-12-09T03:19:03.798Z,3.32
2022-12-09T03:24:08.447Z,3.33
2022-12-09T03:29:18.361Z,3.32
2022-12-09T03:34:24.943Z,3.41
2022-12-09T03:39:32.847Z,3.38
2022-12-09T03:44:43.891Z,3.43
2022-12-09T03:49:45.524Z,3.38
2022-12-09T03:54:55.285Z,3.37
2022-12-09T04:00:00.218Z,3.46
2022-12-09T04:05:02.312Z,3.35
2022-12-09T04:10:06.286Z,3.50
2022-12-09T04:15:08.863Z,3.36
2022-12-09T04:20:11.225Z,3.31
2022-12-09T04:25:13.726Z,3.23
2022-12-09T04:30:15.647Z,3.19
2022-12-09T04:35:17.163Z,3.11
2022-12-09T04:40:23.807Z,3.03
2022-12-09T04:45:25.956Z,2.92
2022-12-09T04:50:27.949Z,2.72
2022-12-09T04:55:29.665Z,2.63
2022-12-09T05:00:31.237Z,2.51
2022-12-09T05:05:32.884Z,2.42
2022-12-09T05:10:34.831Z,2.30
2022-12-09T05:15:38.386Z,2.37
2022-12-09T05:20:41.191Z,2.40
2022-12-09T05:25:42.821Z,2.36
2022-12-09T05:30:44.569Z,2.31
2022-12-09T05:35:52.758Z,2.27
2022-12-09T05:40:55.303Z,2.30
2022-12-09T05:45:56.950Z,2.26
2022-12-09T05:51:00.028Z,2.13
2022-12-09T05:56:02.088Z,2.11
2022-12-09T06:01:06.343Z,2.12
2022-12-09T06:06:14.680Z,2.22
2022-12-09T06:11:19.758Z,2.19
2022-12-09T06:16:22.439Z,2.10
2022-12-09T06:21:24.500Z,2.00
2022-12-09T06:26:31.919Z,1.75
2022-12-09T06:31:33.665Z,1.77
2022-12-09T06:36:36.241Z,1.62
2022-12-09T06:41:40.690Z,1.52
2022-12-09T06:46:42.324Z,1.39
2022-12-09T06:51:44.709Z,1.33
2022-12-09T06:56:46.564Z,1.22
2022-12-09T07:01:48.806Z,0.95
2022-12-09T07:06:50.625Z,0.90
2022-12-09T07:11:52.830Z,1.07
2022-12-09T07:16:54.591Z,1.14
2022-12-09T07:21:56.657Z,1.15
2022-12-09T07:27:03.127Z,1.39
2022-12-09T07:32:11.632Z,1.59
2022-12-09T07:37:13.354Z,1.69
2022-12-09T07:42:15.058Z,1.80
2022-12-09T07:47:26.504Z,1.97
2022-12-09T07:52:28.318Z,2.18
2022-12-09T07:57:29.881Z,2.25
2022-12-09T08:02:31.893Z,2.23
2022-12-09T08:07:37.309Z,2.16
2022-12-09T08:12:42.440Z,2.11
2022-12-09T08:17:44.317Z,2.13
2022-12-09T08:22:46.129Z,2.23
2022-12-09T08:27:47.877Z,2.45
2022-12-09T08:32:50.095Z,2.59
2022-12-09T08:37:52.186Z,2.74
2022-12-09T08:42:54.265Z,2.67
2022-12-09T08:47:56.360Z,2.87
2022-12-09T08:52:58.281Z,2.96
2022-12-09T08:58:00.095Z,2.94
2022-12-09T09:03:01.990Z,2.94
2022-12-09T09:08:04.237Z,3.15
2022-12-09T09:13:05.848Z,3.12
2022-12-09T09:18:07.790Z,3.22
2022-12-09T09:23:10.063Z,3.09
2022-12-09T09:28:11.789Z,3.33
2022-12-09T09:33:13.357Z,3.35
2022-12-09T09:38:15.329Z,3.33
2022-12-09T09:43:19.430Z,3.51
2022-12-09T09:48:24.588Z,3.70
2022-12-09T09:53:32.068Z,3.80
2022-12-09T09:58:49.516Z,4.16
2022-12-09T10:04:03.421Z,4.07
2022-12-09T10:09:22.867Z,4.21
2022-12-09T10:15:00.873Z,4.44
2022-12-09T10:20:10.626Z,4.65
2022-12-09T10:25:22.234Z,4.60
2022-12-09T10:30:24.602Z,4.98
2022-12-09T10:35:30.155Z,4.74
2022-12-09T10:40:48.192Z,4.95
2022-12-09T10:51:36.649Z,5.96
2022-12-09T10:57:00.132Z,7.19
2022-12-09T11:02:06.306Z,8.33
2022-12-09T11:07:21.879Z,7.75
2022-12-09T11:12:27.321Z,9.26
2022-12-09T11:17:30.311Z,9.21
2022-12-09T11:22:36.627Z,8.56
2022-12-09T11:27:49.490Z,8.51
2022-12-09T11:32:55.948Z,9.27
2022-12-09T11:38:02.226Z,9.84
2022-12-09T11:43:04.704Z,8.79
2022-12-09T11:48:35.106Z,9.40
2022-12-09T11:53:42.177Z,9.33
2022-12-09T11:59:11.494Z,9.50
2022-12-09T12:04:21.081Z,8.22
2022-12-09T12:09:43.755Z,9.27
2022-12-09T12:14:45.297Z,9.57
2022-12-09T12:19:51.624Z,9.38
2022-12-09T12:25:21.406Z,9.31
2022-12-09T12:30:39.809Z,9.55
2022-12-09T12:35:47.777Z,8.66
2022-12-09T12:41:04.625Z,9.07
2022-12-09T12:46:17.044Z,9.70
2022-12-09T12:51:24.471Z,8.66
2022-12-09T12:56:37.365Z,8.89
2022-12-09T13:01:57.084Z,9.19
2022-12-09T13:07:36.042Z,9.77
2022-12-09T13:12:43.046Z,8.21
2022-12-09T13:17:47.070Z,8.41
2022-12-09T13:23:20.900Z,7.34
2022-12-09T13:28:33.693Z,6.68
2022-12-09T13:33:49.747Z,6.95
2022-12-09T13:38:51.403Z,7.37
2022-12-09T13:43:54.625Z,6.80
2022-12-09T13:48:56.262Z,6.60
2022-12-09T13:53:57.768Z,6.57
2022-12-09T13:59:17.423Z,7.11
2022-12-09T14:04:24.812Z,6.90
2022-12-09T14:09:35.550Z,6.86
2022-12-09T14:14:44.013Z,6.08
2022-12-09T14:19:48.613Z,5.81
2022-12-09T14:24:53.895Z,5.91
2022-12-09T14:30:23.333Z,5.80
2022-12-09T14:35:49.000Z,5.42
2022-12-09T14:40:59.547Z,5.11
2022-12-09T14:46:07.255Z,4.81
2022-12-09T14:51:34.741Z,4.55
2022-12-09T14:56:36.407Z,4.17
2022-12-09T15:01:54.358Z,3.89
2022-12-09T15:07:18.355Z,3.83
2022-12-09T15:12:25.184Z,3.64
2022-12-09T15:17:35.140Z,3.57
2022-12-09T15:22:36.816Z,3.47
2022-12-09T15:27:38.393Z,3.53
2022-12-09T15:32:39.975Z,3.48
2022-12-09T15:37:41.808Z,3.48
2022-12-09T15:42:46.914Z,3.58
2022-12-09T15:48:08.895Z,3.68
2022-12-09T15:53:39.149Z,3.83
2022-12-09T15:58:52.552Z,3.89
2022-12-09T16:03:55.967Z,3.93
2022-12-09T16:08:58.130Z,4.02
2022-12-09T16:14:00.869Z,4.14
2022-12-09T16:19:02.431Z,4.15
2022-12-09T16:24:12.962Z,4.09
2022-12-09T16:29:27.759Z,4.02
2022-12-09T16:34:29.824Z,3.97
2022-12-09T16:39:33.596Z,3.87
2022-12-09T16:44:37.111Z,3.82
2022-12-09T16:49:40.472Z,3.72
2022-12-09T16:54:46.292Z,3.60
2022-12-09T16:59:48.270Z,3.38
2022-12-09T17:04:51.397Z,3.23
2022-12-09T17:09:52.904Z,3.17
2022-12-09T17:14:54.515Z,3.09
2022-12-09T17:19:56.086Z,2.91
2022-12-09T17:24:57.606Z,2.79
2022-12-09T17:29:59.190Z,2.63
2022-12-09T17:35:00.741Z,2.53
2022-12-09T17:40:03.871Z,2.39
2022-12-09T17:45:06.480Z,2.24
2022-12-09T17:50:08.689Z,2.06
2022-12-09T17:55:10.907Z,1.99
2022-12-09T18:00:13.083Z,1.98
2022-12-09T18:05:14.642Z,1.97
2022-12-09T18:10:16.362Z,2.01
2022-12-09T18:15:17.990Z,1.90
2022-12-09T18:20:19.614Z,1.82
2022-12-09T18:25:21.110Z,1.79
2022-12-09T18:30:22.658Z,1.66
2022-12-09T18:35:24.209Z,1.60
2022-12-09T18:40:26.183Z,1.59
2022-12-09T18:45:27.789Z,1.58
2022-12-09T18:50:29.285Z,1.69
2022-12-09T18:55:30.753Z,1.79
2022-12-09T19:00:32.297Z,1.80
2022-12-09T19:05:42.072Z,1.69
2022-12-09T19:10:52.523Z,1.51
2022-12-09T19:15:54.070Z,1.39
2022-12-09T19:20:55.646Z,1.29
2022-12-09T19:25:57.213Z,1.27
2022-12-09T19:30:58.813Z,1.16
2022-12-09T19:36:03.300Z,0.98
2022-12-09T19:41:05.133Z,0.79
2022-12-09T19:46:08.789Z,0.89
2022-12-09T19:51:12.988Z,0.76
2022-12-09T19:56:17.959Z,0.62
2022-12-09T20:01:25.207Z,0.50
2022-12-09T20:06:27.423Z,0.60
2022-12-09T20:11:30.731Z,0.70
2022-12-09T20:16:33.441Z,0.78
2022-12-09T20:21:34.988Z,0.85
2022-12-09T20:26:37.663Z,0.86
2022-12-09T20:31:40.840Z,0.93
2022-12-09T20:36:43.972Z,1.13
2022-12-09T20:41:46.501Z,1.36
2022-12-09T20:46:51.855Z,1.53
2022-12-09T20:51:54.370Z,1.54
2022-12-09T20:56:55.913Z,1.57
2022-12-09T21:01:57.484Z,1.52
2022-12-09T21:06:58.984Z,1.40
2022-12-09T21:12:00.549Z,1.54
2022-12-09T21:17:02.149Z,1.63
2022-12-09T21:22:04.074Z,1.63
2022-12-09T21:27:05.551Z,1.55
2022-12-09T21:32:07.108Z,1.61
2022-12-09T21:37:08.641Z,1.58
2022-12-09T21:42:10.151Z,1.65
2022-12-09T21:47:12.032Z,1.63
2022-12-09T21:52:13.548Z,1.69
2022-12-09T21:57:15.074Z,1.58
2022-12-09T22:02:16.816Z,1.53
2022-12-09T22:07:18.719Z,1.42
2022-12-09T22:12:20.322Z,1.31
2022-12-09T22:17:21.820Z,1.25
2022-12-09T22:22:23.300Z,1.31
2022-12-09T22:27:24.944Z,1.27
2022-12-09T22:32:29.264Z,1.21
2022-12-09T22:37:46.114Z,1.18
2022-12-09T22:42:47.644Z,1.14
2022-12-09T22:47:50.222Z,0.97
2022-12-09T22:52:51.778Z,0.86
2022-12-09T22:57:53.315Z,0.67
2022-12-09T23:02:54.973Z,0.47
2022-12-09T23:07:56.570Z,0.36
2022-12-09T23:12:58.180Z,0.35
2022-12-09T23:18:00.094Z,0.29
2022-12-09T23:23:01.601Z,0.14
2022-12-09T23:28:03.225Z,-0.04
2022-12-09T23:33:04.724Z,-0.09
2022-12-09T23:38:06.378Z,-0.22
2022-12-09T23:43:08.013Z,-0.01
2022-12-09T23:48:09.561Z,-0.24
2022-12-09T23:53:11.037Z,-0.33
2022-12-09T23:58:12.513Z,-0.18
